createdAt,value
2019-06-01T00:00:46.261Z,4.70
2019-06-01T00:03:17.446Z,5.80
2019-06-01T00:05:48.750Z,8.25
2019-06-01T00:08:18.352Z,5.85
2019-06-01T00:10:47.875Z,5.87
2019-06-01T00:13:17.306Z,5.08
2019-06-01T00:16:06.123Z,7.58
2019-06-01T00:18:35.582Z,5.53
2019-06-01T00:21:05.051Z,5.05
2019-06-01T00:23:34.490Z,9.73
2019-06-01T00:26:04.011Z,7.28
2019-06-01T00:28:33.626Z,7.33
2019-06-01T00:31:02.972Z,3.72
2019-06-01T00:33:32.507Z,6.85
2019-06-01T00:36:02.025Z,5.95
2019-06-01T00:38:31.490Z,4.60
2019-06-01T00:41:00.930Z,5.97
2019-06-01T00:43:30.379Z,8.00
2019-06-01T00:45:59.840Z,5.75
2019-06-01T00:48:29.304Z,6.70
2019-06-01T00:50:58.756Z,5.72
2019-06-01T00:53:28.302Z,7.67
2019-06-01T00:55:57.756Z,6.12
2019-06-01T00:58:27.180Z,6.78
2019-06-01T01:00:56.651Z,6.20
2019-06-01T01:03:26.090Z,9.88
2019-06-01T01:06:01.911Z,5.00
2019-06-01T01:08:31.380Z,8.53
2019-06-01T01:11:00.837Z,7.92
2019-06-01T01:13:30.318Z,11.03
2019-06-01T01:16:11.551Z,7.75
2019-06-01T01:18:41.017Z,6.53
2019-06-01T01:21:10.913Z,6.12
2019-06-01T01:23:40.442Z,7.05
2019-06-01T01:26:09.911Z,7.78
2019-06-01T01:28:39.374Z,5.58
2019-06-01T01:31:13.762Z,9.25
2019-06-01T01:33:41.124Z,10.32
2019-06-01T01:36:10.619Z,14.25
2019-06-01T01:38:40.046Z,13.65
2019-06-01T01:41:09.510Z,11.22
2019-06-01T01:43:39.047Z,12.90
2019-06-01T01:46:08.531Z,5.85
2019-06-01T01:48:38.003Z,6.78
2019-06-01T01:51:07.439Z,8.10
2019-06-01T01:53:36.903Z,10.28
2019-06-01T01:56:06.419Z,7.40
2019-06-01T01:58:35.870Z,8.83
2019-06-01T02:01:21.554Z,10.43
2019-06-01T02:03:36.485Z,8.43
2019-06-01T02:06:06.002Z,5.62
2019-06-01T02:08:35.449Z,7.53
2019-06-01T02:11:05.039Z,8.43
2019-06-01T02:13:34.490Z,9.55
2019-06-01T02:16:04.000Z,9.65
2019-06-01T02:18:33.456Z,7.03
2019-06-01T02:21:04.151Z,11.28
2019-06-01T02:23:33.621Z,11.50
2019-06-01T02:26:03.374Z,11.53
2019-06-01T02:28:32.847Z,14.25
2019-06-01T02:31:03.888Z,7.80
2019-06-01T02:33:33.567Z,8.80
2019-06-01T02:36:04.889Z,7.83
2019-06-01T02:38:34.108Z,10.10
2019-06-01T02:41:05.499Z,10.55
2019-06-01T02:43:34.703Z,17.35
2019-06-01T02:46:06.640Z,11.95
2019-06-01T02:48:35.311Z,8.95
2019-06-01T02:51:05.519Z,7.05
2019-06-01T02:53:35.006Z,8.70
2019-06-01T02:56:04.555Z,6.75
2019-06-01T02:58:33.986Z,9.03
2019-06-01T03:01:24.503Z,7.90
2019-06-01T03:03:55.470Z,8.35
2019-06-01T03:06:28.030Z,7.92
2019-06-01T03:09:01.689Z,6.90
2019-06-01T03:11:36.589Z,8.23
2019-06-01T03:14:08.913Z,6.67
2019-06-01T03:16:40.461Z,8.35
2019-06-01T03:19:11.967Z,10.90
2019-06-01T03:21:44.007Z,7.50
2019-06-01T03:24:13.618Z,9.88
2019-06-01T03:26:46.494Z,8.45
2019-06-01T03:29:18.611Z,8.78
2019-06-01T03:31:48.210Z,5.60
2019-06-01T03:34:17.728Z,12.13
2019-06-01T03:36:47.652Z,6.33
2019-06-01T03:39:17.335Z,8.43
2019-06-01T03:41:46.860Z,7.80
2019-06-01T03:44:16.374Z,7.47
2019-06-01T03:46:45.831Z,12.35
2019-06-01T03:49:15.294Z,7.25
2019-06-01T03:51:44.741Z,7.20
2019-06-01T03:54:14.240Z,4.90
2019-06-01T03:56:43.715Z,6.47
2019-06-01T03:59:13.163Z,8.03
2019-06-01T04:01:42.632Z,4.75
2019-06-01T04:04:12.084Z,9.28
2019-06-01T04:06:42.497Z,5.83
2019-06-01T04:09:18.086Z,5.60
2019-06-01T04:11:49.171Z,6.78
2019-06-01T04:14:18.625Z,4.33
2019-06-01T04:16:48.083Z,5.85
2019-06-01T04:19:18.624Z,10.63
2019-06-01T04:21:48.091Z,7.00
2019-06-01T04:24:17.559Z,6.40
2019-06-01T04:26:47.007Z,9.60
2019-06-01T04:29:16.515Z,10.40
2019-06-01T04:31:46.001Z,4.35
2019-06-01T04:34:15.459Z,8.45
2019-06-01T04:36:44.895Z,7.08
2019-06-01T04:39:14.369Z,5.05
2019-06-01T04:41:43.894Z,3.95
2019-06-01T04:44:14.348Z,5.28
2019-06-01T04:46:44.983Z,8.15
2019-06-01T04:49:14.983Z,8.60
2019-06-01T04:51:44.589Z,4.97
2019-06-01T04:54:15.544Z,3.77
2019-06-01T04:56:45.152Z,6.40
2019-06-01T04:59:15.335Z,4.97
2019-06-01T05:01:44.936Z,7.33
2019-06-01T05:04:17.171Z,8.83
2019-06-01T05:06:46.811Z,5.42
2019-06-01T05:09:16.295Z,4.17
2019-06-01T05:11:45.844Z,4.97
2019-06-01T05:14:16.537Z,6.55
2019-06-01T05:16:46.325Z,5.78
2019-06-01T05:19:16.608Z,8.43
2019-06-01T05:21:46.242Z,7.50
2019-06-01T05:24:16.931Z,6.08
2019-06-01T05:26:46.645Z,5.92
2019-06-01T05:29:17.776Z,8.65
2019-06-01T05:31:47.178Z,3.67
2019-06-01T05:34:20.370Z,9.55
2019-06-01T05:36:49.835Z,7.30
2019-06-01T05:39:19.282Z,6.53
2019-06-01T05:42:02.323Z,7.30
2019-06-01T05:44:31.846Z,6.60
2019-06-01T05:47:01.314Z,5.42
2019-06-01T05:49:36.469Z,8.90
2019-06-01T05:52:06.088Z,7.78
2019-06-01T05:54:35.539Z,4.65
2019-06-01T05:57:05.057Z,5.35
2019-06-01T05:59:34.511Z,7.83
2019-06-01T06:02:04.024Z,5.35
2019-06-01T06:04:34.569Z,8.30
2019-06-01T06:07:04.073Z,5.28
2019-06-01T06:09:34.283Z,4.87
2019-06-01T06:12:03.849Z,8.58
2019-06-01T06:14:33.301Z,7.53
2019-06-01T06:17:02.789Z,14.25
2019-06-01T06:19:32.236Z,8.43
2019-06-01T06:22:01.677Z,8.20
2019-06-01T06:24:31.139Z,8.55
2019-06-01T06:27:00.620Z,8.45
2019-06-01T06:29:30.054Z,6.97
2019-06-01T06:31:59.496Z,8.83
2019-06-01T06:34:28.973Z,14.80
2019-06-01T06:36:58.419Z,12.85
2019-06-01T06:39:27.879Z,8.15
2019-06-01T06:41:57.363Z,12.88
2019-06-01T06:44:26.805Z,17.12
2019-06-01T06:46:56.264Z,12.85
2019-06-01T06:49:25.894Z,9.20
2019-06-01T06:51:55.379Z,9.93
2019-06-01T06:54:25.936Z,7.05
2019-06-01T06:56:55.495Z,8.40
2019-06-01T06:59:24.971Z,7.10
2019-06-01T07:01:54.401Z,11.63
2019-06-01T07:04:23.875Z,7.30
2019-06-01T07:06:53.350Z,9.08
2019-06-01T07:09:23.961Z,6.65
2019-06-01T07:11:53.531Z,7.40
2019-06-01T07:14:23.465Z,7.55
2019-06-01T07:16:53.034Z,10.80
2019-06-01T07:19:23.658Z,7.58
2019-06-01T07:21:53.254Z,7.22
2019-06-01T07:24:23.798Z,8.63
2019-06-01T07:26:53.443Z,11.08
2019-06-01T07:29:24.116Z,7.30
2019-06-01T07:31:53.706Z,9.28
2019-06-01T07:34:35.487Z,8.30
2019-06-01T07:36:55.205Z,12.28
2019-06-01T07:39:24.923Z,9.68
2019-06-01T07:41:54.452Z,8.53
2019-06-01T07:44:25.022Z,6.80
2019-06-01T07:46:54.542Z,7.03
2019-06-01T07:49:24.984Z,14.35
2019-06-01T07:51:54.636Z,11.12
2019-06-01T07:54:24.880Z,13.62
2019-06-01T07:56:54.438Z,8.25
2019-06-01T07:59:24.518Z,6.53
2019-06-01T08:01:55.033Z,13.25
2019-06-01T08:04:26.296Z,8.93
2019-06-01T08:06:55.727Z,9.40
2019-06-01T08:09:26.567Z,11.93
2019-06-01T08:11:56.269Z,9.03
2019-06-01T08:14:26.502Z,10.53
2019-06-01T08:16:56.096Z,5.60
2019-06-01T08:19:26.512Z,10.80
2019-06-01T08:21:55.983Z,7.40
2019-06-01T08:24:26.219Z,8.85
2019-06-01T08:26:55.921Z,11.85
2019-06-01T08:29:26.533Z,7.83
2019-06-01T08:31:57.260Z,10.00
2019-06-01T08:34:26.970Z,7.87
2019-06-01T08:36:56.476Z,14.65
2019-06-01T08:39:27.270Z,8.18
2019-06-01T08:41:56.960Z,8.23
2019-06-01T08:44:27.585Z,18.48
2019-06-01T08:46:57.416Z,8.38
2019-06-01T08:49:27.987Z,7.10
2019-06-01T08:51:57.647Z,6.25
2019-06-01T08:54:28.107Z,5.30
2019-06-01T08:56:57.678Z,8.45
2019-06-01T08:59:28.272Z,8.88
2019-06-01T09:01:57.953Z,6.85
2019-06-01T09:04:28.731Z,7.25
2019-06-01T09:06:58.399Z,9.48
2019-06-01T09:09:31.005Z,8.55
2019-06-01T09:12:00.537Z,7.28
2019-06-01T09:14:31.235Z,9.15
2019-06-01T09:17:00.850Z,5.78
2019-06-01T09:19:31.418Z,6.37
2019-06-01T09:22:01.172Z,4.67
2019-06-01T09:24:31.853Z,4.40
2019-06-01T09:27:01.595Z,6.55
2019-06-01T09:29:32.085Z,9.53
2019-06-01T09:32:01.831Z,8.08
2019-06-01T09:34:32.408Z,5.03
2019-06-01T09:37:01.921Z,7.78
2019-06-01T09:39:33.154Z,4.55
2019-06-01T09:42:02.678Z,6.55
2019-06-01T09:44:33.483Z,7.30
2019-06-01T09:47:04.782Z,6.17
2019-06-01T09:49:35.696Z,9.60
2019-06-01T09:52:05.477Z,4.37
2019-06-01T09:54:36.289Z,6.03
2019-06-01T09:57:06.170Z,4.50
2019-06-01T09:59:36.059Z,4.83
2019-06-01T10:02:05.680Z,6.37
2019-06-01T10:04:36.466Z,10.68
2019-06-01T10:07:06.135Z,7.03
2019-06-01T10:09:35.794Z,7.12
2019-06-01T10:12:05.703Z,7.00
2019-06-01T10:14:36.205Z,9.20
2019-06-01T10:17:05.650Z,3.15
2019-06-01T10:19:35.075Z,6.12
2019-06-01T10:22:04.647Z,6.70
2019-06-01T10:24:35.132Z,3.58
2019-06-01T10:27:04.835Z,4.50
2019-06-01T10:29:36.658Z,6.83
2019-06-01T10:32:09.430Z,4.67
2019-06-01T10:34:39.868Z,5.37
2019-06-01T10:37:09.559Z,4.05
2019-06-01T10:39:39.439Z,5.95
2019-06-01T10:42:09.108Z,7.65
2019-06-01T10:44:43.470Z,3.85
2019-06-01T10:47:09.684Z,4.85
2019-06-01T10:49:40.119Z,4.50
2019-06-01T10:52:10.761Z,4.17
2019-06-01T10:54:40.343Z,7.42
2019-06-01T10:57:09.756Z,5.35
2019-06-01T10:59:40.447Z,8.38
2019-06-01T11:02:10.449Z,5.40
2019-06-01T11:04:41.124Z,3.70
2019-06-01T11:07:11.918Z,2.58
2019-06-01T11:09:41.460Z,4.58
2019-06-01T11:12:10.917Z,6.17
2019-06-01T11:14:41.321Z,5.60
2019-06-01T11:17:10.822Z,3.92
2019-06-01T11:19:41.984Z,8.65
2019-06-01T11:22:14.893Z,2.00
2019-06-01T11:24:44.366Z,4.53
2019-06-01T11:27:13.839Z,2.75
2019-06-01T11:29:49.726Z,3.33
2019-06-01T11:32:14.463Z,5.05
2019-06-01T11:34:44.493Z,3.67
2019-06-01T11:37:16.100Z,3.37
2019-06-01T11:39:45.148Z,10.32
2019-06-01T11:42:14.591Z,4.78
2019-06-01T11:44:45.032Z,2.85
2019-06-01T11:47:15.602Z,3.60
2019-06-01T11:49:46.090Z,1.95
2019-06-01T11:52:15.546Z,5.45
2019-06-01T11:54:45.458Z,3.70
2019-06-01T11:57:16.026Z,2.12
2019-06-01T11:59:45.793Z,3.20
2019-06-01T12:02:15.236Z,3.25
2019-06-01T12:04:46.230Z,3.25
2019-06-01T12:07:17.949Z,4.05
2019-06-01T12:09:47.040Z,1.77
2019-06-01T12:12:16.611Z,4.87
2019-06-01T12:14:47.043Z,4.22
2019-06-01T12:17:16.560Z,6.00
2019-06-01T12:19:46.972Z,5.37
2019-06-01T12:22:16.614Z,1.77
2019-06-01T12:24:47.203Z,7.28
2019-06-01T12:27:16.934Z,2.45
2019-06-01T12:29:46.402Z,3.02
2019-06-01T12:32:15.924Z,3.37
2019-06-01T12:34:46.240Z,1.52
2019-06-01T12:37:15.875Z,2.22
2019-06-01T12:39:52.181Z,6.45
2019-06-01T12:42:19.083Z,1.40
2019-06-01T12:44:48.513Z,1.30
2019-06-01T12:47:18.046Z,2.62
2019-06-01T12:49:48.272Z,3.02
2019-06-01T12:52:17.779Z,2.85
2019-06-01T12:54:47.218Z,3.10
2019-06-01T12:57:20.139Z,1.50
2019-06-01T12:59:51.065Z,3.17
2019-06-01T13:02:20.719Z,1.75
2019-06-01T13:04:53.090Z,2.37
2019-06-01T13:07:22.868Z,1.30
2019-06-01T13:09:52.897Z,1.67
2019-06-01T13:12:22.339Z,1.72
2019-06-01T13:14:52.210Z,3.27
2019-06-01T13:17:21.814Z,1.87
2019-06-01T13:19:51.584Z,2.70
2019-06-01T13:22:21.085Z,1.25
2019-06-01T13:24:52.076Z,2.67
2019-06-01T13:27:21.674Z,1.85
2019-06-01T13:29:52.156Z,3.30
2019-06-01T13:32:21.718Z,3.45
2019-06-01T13:34:51.444Z,1.82
2019-06-01T13:37:22.350Z,4.35
2019-06-01T13:39:56.592Z,4.87
2019-06-01T13:42:22.997Z,2.33
2019-06-01T13:44:53.602Z,2.83
2019-06-01T13:47:23.151Z,2.30
2019-06-01T13:49:54.030Z,2.30
2019-06-01T13:52:23.699Z,6.00
2019-06-01T13:54:55.525Z,2.77
2019-06-01T13:57:24.976Z,1.55
2019-06-01T13:59:55.056Z,1.32
2019-06-01T14:02:27.373Z,1.30
2019-06-01T14:04:58.440Z,1.90
2019-06-01T14:07:29.864Z,8.03
2019-06-01T14:09:58.981Z,1.60
2019-06-01T14:12:28.430Z,1.20
2019-06-01T14:14:57.889Z,3.25
2019-06-01T14:17:27.343Z,1.75
2019-06-01T14:19:56.808Z,1.17
2019-06-01T14:22:26.247Z,2.12
2019-06-01T14:25:11.956Z,6.45
2019-06-01T14:27:26.843Z,3.42
2019-06-01T14:29:57.542Z,2.08
2019-06-01T14:32:27.011Z,2.87
2019-06-01T14:34:57.013Z,5.12
2019-06-01T14:37:26.498Z,1.45
2019-06-01T14:39:57.102Z,2.08
2019-06-01T14:42:26.651Z,4.08
2019-06-01T14:44:56.148Z,4.58
2019-06-01T14:47:26.755Z,1.65
2019-06-01T14:49:56.217Z,2.22
2019-06-01T14:52:25.687Z,1.87
2019-06-01T14:54:55.922Z,2.67
2019-06-01T14:57:26.546Z,1.90
2019-06-01T14:59:58.148Z,1.42
2019-06-01T15:02:27.710Z,5.85
2019-06-01T15:04:58.593Z,3.77
2019-06-01T15:07:28.177Z,1.50
2019-06-01T15:09:58.449Z,2.55
2019-06-01T15:12:28.143Z,1.92
2019-06-01T15:14:57.653Z,2.22
2019-06-01T15:17:27.346Z,2.05
2019-06-01T15:19:58.192Z,1.72
2019-06-01T15:22:27.849Z,4.87
2019-06-01T15:24:58.413Z,2.25
2019-06-01T15:27:29.021Z,2.37
2019-06-01T15:29:59.014Z,5.12
2019-06-01T15:32:28.494Z,1.10
2019-06-01T15:34:59.898Z,2.08
2019-06-01T15:37:29.063Z,2.37
2019-06-01T15:39:58.718Z,3.55
2019-06-01T15:42:28.294Z,1.35
2019-06-01T15:44:57.763Z,2.20
2019-06-01T15:47:27.194Z,2.80
2019-06-01T15:49:57.912Z,3.75
2019-06-01T15:52:28.470Z,1.60
2019-06-01T15:54:58.353Z,3.37
2019-06-01T15:57:27.992Z,1.72
2019-06-01T15:59:58.626Z,2.15
2019-06-01T16:02:28.158Z,2.37
2019-06-01T16:04:57.685Z,2.35
2019-06-01T16:07:27.605Z,2.80
2019-06-01T16:09:57.408Z,3.02
2019-06-01T16:12:26.987Z,4.70
2019-06-01T16:14:57.613Z,2.27
2019-06-01T16:17:27.066Z,1.65
2019-06-01T16:19:57.884Z,1.35
2019-06-01T16:22:27.385Z,1.65
2019-06-01T16:24:56.826Z,2.67
2019-06-01T16:27:26.334Z,1.55
2019-06-01T16:29:56.850Z,5.65
2019-06-01T16:32:26.343Z,2.08
2019-06-01T16:34:56.892Z,2.00
2019-06-01T16:37:26.336Z,4.62
2019-06-01T16:39:59.754Z,1.77
2019-06-01T16:42:26.879Z,3.00
2019-06-01T16:45:15.787Z,1.47
2019-06-01T16:47:45.259Z,7.37
2019-06-01T16:50:15.578Z,4.87
2019-06-01T16:52:45.033Z,1.87
2019-06-01T16:55:15.894Z,3.85
2019-06-01T16:57:45.412Z,5.47
2019-06-01T17:00:17.033Z,4.60
2019-06-01T17:02:46.498Z,10.80
2019-06-01T17:05:16.119Z,3.60
2019-06-01T17:07:45.578Z,3.52
2019-06-01T17:10:25.647Z,2.00
2019-06-01T17:12:47.801Z,2.15
2019-06-01T17:15:18.371Z,2.00
2019-06-01T17:17:47.883Z,4.15
2019-06-01T17:20:37.570Z,2.85
2019-06-01T17:23:24.318Z,2.60
2019-06-01T17:25:39.241Z,4.85
2019-06-01T17:28:09.270Z,3.70
2019-06-01T17:30:38.906Z,2.05
2019-06-01T17:33:08.622Z,1.32
2019-06-01T17:35:38.291Z,2.40
2019-06-01T17:38:09.087Z,3.25
2019-06-01T17:40:42.803Z,3.72
2019-06-01T17:43:10.894Z,2.95
2019-06-01T17:45:41.650Z,4.35
2019-06-01T17:48:24.746Z,4.22
2019-06-01T17:50:42.368Z,2.08
2019-06-01T17:53:12.906Z,2.77
2019-06-01T17:55:42.832Z,5.37
2019-06-01T17:58:12.689Z,2.35
2019-06-01T18:00:43.619Z,3.90
2019-06-01T18:03:14.315Z,5.67
2019-06-01T18:05:45.015Z,6.87
2019-06-01T18:08:15.184Z,3.95
2019-06-01T18:10:53.786Z,13.72
2019-06-01T18:13:15.794Z,10.65
2019-06-01T18:15:45.274Z,5.75
2019-06-01T18:18:14.832Z,2.20
2019-06-01T18:20:44.412Z,1.77
2019-06-01T18:23:13.956Z,4.47
2019-06-01T18:25:43.576Z,1.90
2019-06-01T18:28:18.548Z,5.87
2019-06-01T18:30:45.157Z,2.62
2019-06-01T18:33:14.634Z,11.55
2019-06-01T18:35:44.184Z,5.65
2019-06-01T18:38:14.837Z,5.20
2019-06-01T18:40:44.505Z,5.22
2019-06-01T18:43:17.415Z,6.72
2019-06-01T18:45:48.158Z,4.20
2019-06-01T18:48:18.869Z,4.12
2019-06-01T18:50:48.581Z,2.58
2019-06-01T18:53:20.484Z,2.10
2019-06-01T18:55:51.079Z,6.25
2019-06-01T18:58:20.627Z,1.87
2019-06-01T19:00:51.444Z,3.37
2019-06-01T19:03:22.440Z,2.27
2019-06-01T19:05:53.083Z,3.27
2019-06-01T19:08:22.533Z,3.85
2019-06-01T19:10:52.191Z,5.42
2019-06-01T19:13:21.750Z,7.00
2019-06-01T19:15:51.340Z,2.83
2019-06-01T19:18:20.910Z,3.20
2019-06-01T19:20:50.386Z,3.22
2019-06-01T19:23:22.481Z,4.17
2019-06-01T19:25:52.599Z,6.75
2019-06-01T19:28:22.072Z,2.60
2019-06-01T19:30:51.684Z,2.92
2019-06-01T19:33:21.116Z,6.60
2019-06-01T19:35:52.484Z,5.47
2019-06-01T19:38:22.316Z,2.62
2019-06-01T19:40:51.850Z,5.47
2019-06-01T19:43:21.315Z,2.83
2019-06-01T19:45:53.679Z,3.35
2019-06-01T19:48:23.129Z,8.40
2019-06-01T19:50:52.610Z,3.35
2019-06-01T19:53:25.129Z,3.95
2019-06-01T19:55:59.786Z,2.37
2019-06-01T19:58:34.568Z,6.50
2019-06-01T20:01:04.087Z,4.40
2019-06-01T20:03:35.091Z,4.47
2019-06-01T20:06:04.724Z,5.58
2019-06-01T20:08:34.260Z,4.15
2019-06-01T20:11:03.784Z,8.75
2019-06-01T20:13:33.383Z,6.80
2019-06-01T20:16:02.894Z,9.10
2019-06-01T20:18:32.337Z,4.28
2019-06-01T20:21:01.839Z,5.00
2019-06-01T20:23:31.380Z,3.87
2019-06-01T20:26:00.800Z,7.40
2019-06-01T20:28:30.330Z,6.87
2019-06-01T20:30:59.779Z,4.03
2019-06-01T20:33:29.331Z,5.15
2019-06-01T20:35:58.799Z,4.58
2019-06-01T20:38:28.337Z,7.97
2019-06-01T20:40:57.783Z,7.75
2019-06-01T20:43:27.244Z,12.78
2019-06-01T20:45:57.089Z,19.30
2019-06-01T20:48:26.790Z,4.60
2019-06-01T20:50:56.252Z,5.47
2019-06-01T20:53:25.711Z,10.15
2019-06-01T20:55:55.154Z,3.52
2019-06-01T20:58:25.034Z,3.35
2019-06-01T21:00:54.995Z,6.17
2019-06-01T21:03:24.553Z,12.20
2019-06-01T21:05:53.994Z,5.20
2019-06-01T21:08:24.162Z,7.33
2019-06-01T21:10:54.862Z,9.40
2019-06-01T21:13:24.419Z,4.87
2019-06-01T21:15:54.048Z,6.87
2019-06-01T21:18:25.268Z,8.68
2019-06-01T21:20:54.999Z,9.63
2019-06-01T21:23:25.283Z,10.10
2019-06-01T21:25:55.610Z,7.30
2019-06-01T21:28:25.712Z,8.88
2019-06-01T21:30:55.587Z,9.13
2019-06-01T21:33:28.165Z,7.80
2019-06-01T21:35:56.105Z,8.70
2019-06-01T21:38:38.688Z,10.38
2019-06-01T21:41:09.767Z,8.83
2019-06-01T21:43:39.225Z,12.70
2019-06-01T21:46:09.638Z,8.85
2019-06-01T21:48:39.115Z,7.75
2019-06-01T21:51:09.763Z,14.30
2019-06-01T21:53:39.358Z,9.90
2019-06-01T21:56:08.825Z,12.18
2019-06-01T21:58:38.257Z,12.07
2019-06-01T22:01:07.856Z,10.72
2019-06-01T22:03:37.296Z,12.23
2019-06-01T22:06:06.847Z,9.68
2019-06-01T22:08:36.305Z,11.85
2019-06-01T22:11:05.735Z,8.65
2019-06-01T22:13:35.205Z,13.62
2019-06-01T22:16:04.754Z,14.80
2019-06-01T22:18:34.184Z,9.40
2019-06-01T22:21:03.665Z,13.00
2019-06-01T22:23:33.105Z,18.27
2019-06-01T22:26:02.551Z,11.80
2019-06-01T22:28:32.011Z,11.15
2019-06-01T22:31:01.772Z,8.50
2019-06-01T22:33:31.374Z,11.12
2019-06-01T22:36:01.371Z,19.40
2019-06-01T22:38:34.916Z,9.73
2019-06-01T22:41:06.032Z,10.60
2019-06-01T22:43:45.445Z,15.38
2019-06-01T22:46:06.622Z,8.50
2019-06-01T22:48:36.022Z,7.67
2019-06-01T22:51:11.570Z,12.25
2019-06-01T22:53:42.223Z,13.85
2019-06-01T22:56:11.748Z,8.80
2019-06-01T22:58:41.339Z,9.98
2019-06-01T23:01:10.801Z,11.55
2019-06-01T23:03:40.318Z,8.48
2019-06-01T23:06:09.783Z,12.40
2019-06-01T23:08:39.224Z,11.70
2019-06-01T23:11:08.762Z,13.78
2019-06-01T23:13:52.192Z,12.35
2019-06-01T23:16:09.339Z,12.18
2019-06-01T23:18:38.917Z,9.53
2019-06-01T23:21:08.359Z,12.68
2019-06-01T23:23:37.832Z,10.30
2019-06-01T23:26:08.359Z,10.40
2019-06-01T23:28:38.823Z,8.53
2019-06-01T23:31:08.398Z,11.78
2019-06-01T23:33:37.853Z,13.10
2019-06-01T23:36:07.331Z,18.40
2019-06-01T23:38:36.870Z,8.30
2019-06-01T23:41:06.371Z,10.82
2019-06-01T23:43:35.821Z,11.60
2019-06-01T23:46:05.355Z,8.73
2019-06-01T23:48:34.811Z,9.70
2019-06-01T23:51:04.442Z,8.25
2019-06-01T23:53:33.937Z,10.75
2019-06-01T23:56:03.402Z,8.58
2019-06-01T23:58:32.877Z,10.35
